Time;durP1;ratioP1;P1;durP2;ratioP2;P2;SDS_P1;SDS_P2;PMS_P1;PMS_P2;Temp;Humidity;BMP_temperature;BMP_pressure;BME280_temperature;BME280_humidity;BME280_pressure;Samples;Min_cycle;Max_cycle;Signal;HPM_P1;HPM_P2
2021/11/20 00:01:45;;;;;;;8.90;4.88;;;;;;;6.78;62.20;96821.25;5094294;28;20069;-67
2021/11/20 00:04:11;;;;;;;6.28;4.28;;;;;;;6.86;61.95;96815.91;5094138;28;20108;-62
2021/11/20 00:06:41;;;;;;;7.18;4.57;;;;;;;6.87;61.99;96818.47;5094159;28;20381;-68
2021/11/20 00:09:09;;;;;;;5.80;4.28;;;;;;;6.86;62.13;96827.16;5094001;28;20524;-66
2021/11/20 00:11:38;;;;;;;5.10;3.70;;;;;;;6.86;61.89;96821.13;5093956;28;20016;-62
2021/11/20 00:14:05;;;;;;;6.13;3.55;;;;;;;6.90;62.16;96820.16;5093911;28;20024;-68
2021/11/20 00:16:31;;;;;;;7.72;4.18;;;;;;;6.89;61.69;96808.88;5094047;28;20020;-62
2021/11/20 00:18:59;;;;;;;9.55;4.53;;;;;;;6.97;61.71;96816.56;5093775;28;20031;-68
2021/11/20 00:21:32;;;;;;;4.10;3.20;;;;;;;7.01;61.49;96822.56;5093927;28;20476;-67
2021/11/20 00:24:01;;;;;;;6.40;3.88;;;;;;;6.98;61.90;96826.06;5093929;28;20107;-65
2021/11/20 00:26:33;;;;;;;5.95;4.28;;;;;;;7.01;61.54;96826.00;5093835;28;20024;-66
2021/11/20 00:31:32;;;;;;;4.88;3.45;;;;;;;6.94;61.81;96804.47;5093666;28;20028;-67
2021/11/20 00:33:59;;;;;;;4.13;3.17;;;;;;;6.93;61.91;96797.53;5093612;28;20485;-67
2021/11/20 00:36:25;;;;;;;4.88;3.28;;;;;;;7.03;61.62;96798.22;5093785;28;20434;-65
2021/11/20 00:38:52;;;;;;;5.57;3.85;;;;;;;7.10;61.61;96798.13;5093588;28;20063;-63
2021/11/20 00:41:22;;;;;;;4.30;3.28;;;;;;;7.07;61.70;96784.28;5093171;28;20020;-68
2021/11/20 00:43:49;;;;;;;;;;;;;;;7.12;61.62;96785.91;5094118;28;20027;-63
2021/11/20 00:46:17;;;;;;;4.30;3.67;;;;;;;7.06;61.56;96779.97;5093508;28;19919;-62
2021/11/20 00:48:45;;;;;;;8.40;4.40;;;;;;;7.09;61.90;96779.03;5093439;28;20099;-68
2021/11/20 00:51:13;;;;;;;4.93;3.40;;;;;;;7.10;61.69;96777.31;5093372;28;20024;-62
2021/11/20 00:53:39;;;;;;;6.28;4.18;;;;;;;7.12;61.54;96768.56;5093463;28;20020;-61
2021/11/20 00:56:07;;;;;;;5.53;3.88;;;;;;;7.10;61.80;96775.53;5093385;28;20435;-66
2021/11/20 00:58:34;;;;;;;5.78;3.63;;;;;;;7.22;61.21;96766.63;5093273;28;20020;-63
2021/11/20 01:04:23;;;;;;;5.05;3.60;;;;;;;7.13;61.71;96749.47;5093375;28;20047;-67
2021/11/20 01:10:14;;;;;;;4.15;3.13;;;;;;;7.07;61.72;96745.25;5093360;28;20125;-65
2021/11/20 01:12:40;;;;;;;6.35;3.50;;;;;;;7.14;61.71;96748.59;5093225;28;20477;-64
2021/11/20 01:15:09;;;;;;;5.25;3.60;;;;;;;7.13;62.07;96746.03;5093108;28;20048;-62
2021/11/20 01:17:35;;;;;;;5.75;3.22;;;;;;;7.12;61.76;96734.75;5093055;28;20499;-66
2021/11/20 01:20:05;;;;;;;4.97;3.15;;;;;;;7.08;61.55;96736.53;5092899;28;20046;-65
2021/11/20 01:22:30;;;;;;;5.45;2.53;;;;;;;7.15;61.55;96737.28;5093119;28;20043;-67
2021/11/20 01:24:57;;;;;;;4.18;3.33;;;;;;;7.14;61.16;96738.19;5092966;28;20048;-64
2021/11/20 01:27:24;;;;;;;4.47;2.85;;;;;;;7.16;61.34;96743.31;5092890;28;20377;-63
2021/11/20 01:29:51;;;;;;;3.38;2.75;;;;;;;7.17;61.18;96739.84;5092972;28;20020;-66
2021/11/20 01:32:17;;;;;;;3.45;2.80;;;;;;;7.17;61.08;96743.28;5092968;28;20024;-62
2021/11/20 01:34:45;;;;;;;3.92;3.17;;;;;;;7.14;61.19;96740.78;5092921;28;20493;-64
2021/11/20 01:37:11;;;;;;;4.07;2.70;;;;;;;7.15;60.99;96739.03;5091654;28;20035;-63
2021/11/20 01:39:38;;;;;;;3.10;2.65;;;;;;;7.19;61.03;96740.66;5093151;28;20024;-66
2021/11/20 01:42:15;;;;;;;4.03;2.78;;;;;;;7.26;60.70;96741.41;5093033;28;20031;-65
2021/11/20 01:44:53;;;;;;;3.65;2.60;;;;;;;7.27;60.81;96736.16;5092874;28;20024;-62
2021/11/20 01:47:30;;;;;;;3.25;2.50;;;;;;;7.29;60.62;96730.94;5092757;28;20052;-63
2021/11/20 01:50:08;;;;;;;3.40;2.92;;;;;;;7.22;60.86;96734.56;5092948;28;20032;-64
2021/11/20 01:52:46;;;;;;;4.03;2.55;;;;;;;7.10;61.04;96735.69;5094734;28;20028;-63
2021/11/20 01:56:09;;;;;;;3.88;2.92;;;;;;;7.05;61.35;96740.97;5096698;28;20097;-66
2021/11/20 01:58:59;;;;;;;7.50;3.20;;;;;;;6.88;61.69;96734.38;5054398;28;20028;-66
2021/11/20 02:01:33;;;;;;;3.75;3.10;;;;;;;6.65;62.37;96734.84;5054273;28;20394;-65
2021/11/20 02:04:05;;;;;;;5.50;3.60;;;;;;;6.52;63.06;96727.25;5075997;28;20024;-66
2021/11/20 02:06:47;;;;;;;5.47;3.42;;;;;;;6.52;63.05;96724.66;5096668;28;20105;-63
2021/11/20 02:09:33;;;;;;;3.92;2.95;;;;;;;6.57;62.92;96724.56;5096558;28;20028;-66
2021/11/20 02:12:07;;;;;;;3.05;2.30;;;;;;;6.67;62.95;96730.44;5096370;28;20024;-64
2021/11/20 02:14:33;;;;;;;5.05;3.50;;;;;;;6.60;62.51;96723.66;5096506;28;20090;-62
2021/11/20 02:17:14;;;;;;;4.60;3.30;;;;;;;6.54;62.50;96722.88;5096477;28;20032;-64
2021/11/20 02:19:44;;;;;;;5.13;3.63;;;;;;;6.47;62.31;96725.63;5096067;28;20059;-67
2021/11/20 02:22:31;;;;;;;5.22;3.70;;;;;;;6.26;62.90;96712.97;5096178;28;20032;-65
2021/11/20 02:24:57;;;;;;;6.15;3.67;;;;;;;6.13;63.32;96714.09;5096244;28;20024;-66
2021/11/20 02:27:22;;;;;;;4.78;3.60;;;;;;;6.15;63.14;96713.19;5096090;28;20034;-68
2021/11/20 02:29:48;;;;;;;6.78;3.72;;;;;;;6.06;62.98;96708.16;5096167;28;20033;-65
2021/11/20 02:32:23;;;;;;;6.40;3.47;;;;;;;6.06;62.85;96713.34;5095995;28;20025;-64
2021/11/20 02:34:51;;;;;;;5.13;3.63;;;;;;;6.09;63.09;96710.69;5095980;28;20469;-67
2021/11/20 02:37:18;;;;;;;4.10;3.25;;;;;;;6.04;63.38;96721.16;5095907;28;20024;-64
2021/11/20 02:39:45;;;;;;;6.20;3.60;;;;;;;6.08;63.03;96714.16;5095887;28;20024;-67
2021/11/20 02:42:18;;;;;;;6.53;4.30;;;;;;;6.00;63.06;96713.41;5095974;28;20370;-69
2021/11/20 02:44:44;;;;;;;11.00;5.78;;;;;;;5.95;63.33;96716.09;5095759;28;20104;-64
2021/11/20 02:47:24;;;;;;;11.68;5.43;;;;;;;5.99;63.44;96716.91;5095714;28;20035;-68
2021/11/20 02:49:51;;;;;;;12.10;6.03;;;;;;;5.98;63.06;96710.84;5095805;28;20020;-67
2021/11/20 02:52:18;;;;;;;14.95;6.55;;;;;;;5.89;63.58;96711.84;5095711;28;20013;-65
2021/11/20 02:54:44;;;;;;;27.85;11.23;;;;;;;5.82;63.77;96705.88;5095621;28;20024;-67
2021/11/20 02:57:21;;;;;;;33.50;16.25;;;;;;;5.80;64.21;96710.28;5095520;28;20027;-67
2021/11/20 02:59:47;;;;;;;29.88;14.50;;;;;;;5.74;64.03;96712.97;5095546;28;20031;-63
2021/11/20 03:02:14;;;;;;;26.40;12.50;;;;;;;5.67;64.30;96700.97;5095373;28;20028;-64
2021/11/20 03:04:42;;;;;;;21.80;12.38;;;;;;;5.61;64.85;96707.13;5095334;28;20028;-65
2021/11/20 03:07:07;;;;;;;27.20;14.18;;;;;;;5.52;65.12;96705.53;5095424;28;20051;-67
2021/11/20 03:09:35;;;;;;;24.00;10.88;;;;;;;5.51;64.96;96703.78;5095343;28;20474;-64
2021/11/20 03:12:03;;;;;;;5.53;4.20;;;;;;;5.39;65.45;96707.41;5095416;28;20105;-65
2021/11/20 03:14:29;;;;;;;22.35;9.73;;;;;;;5.36;65.38;96712.66;5095214;28;20031;-64
2021/11/20 03:17:13;;;;;;;25.33;11.98;;;;;;;5.35;65.57;96718.72;5095049;28;20024;-68
2021/11/20 03:19:42;;;;;;;19.77;10.75;;;;;;;5.37;66.39;96713.53;5094904;28;20072;-66
2021/11/20 03:22:16;;;;;;;45.85;18.83;;;;;;;5.31;65.92;96711.88;5095107;28;20032;-64
2021/11/20 03:24:42;;;;;;;26.65;13.02;;;;;;;5.26;66.50;96711.06;5095087;28;20035;-64
2021/11/20 03:27:08;;;;;;;24.27;11.70;;;;;;;5.24;66.48;96710.25;5094921;28;20028;-68
2021/11/20 03:29:35;;;;;;;25.83;11.13;;;;;;;5.20;66.83;96708.59;5095046;28;20024;-64
2021/11/20 03:32:01;;;;;;;28.33;11.55;;;;;;;5.13;67.25;96708.66;5095013;28;20027;-64
2021/11/20 03:34:29;;;;;;;21.73;8.70;;;;;;;5.10;66.71;96708.69;5094857;28;20146;-63
2021/11/20 03:36:55;;;;;;;13.70;5.78;;;;;;;5.02;66.83;96707.94;5094682;28;20035;-67
2021/11/20 03:39:21;;;;;;;14.85;7.10;;;;;;;5.03;69.91;96704.47;5094749;28;20016;-66
2021/11/20 03:41:47;;;;;;;11.13;5.32;;;;;;;5.27;69.27;96711.03;5094693;28;20103;-63
2021/11/20 03:44:13;;;;;;;17.00;7.22;;;;;;;5.51;68.75;96718.53;5094749;28;20043;-63
2021/11/20 03:46:41;;;;;;;5.40;3.13;;;;;;;5.72;69.87;96713.88;5094578;28;20032;-66
2021/11/20 03:49:07;;;;;;;6.10;3.80;;;;;;;5.91;69.26;96722.22;5094401;28;20363;-64
2021/11/20 03:51:33;;;;;;;6.22;3.65;;;;;;;5.94;67.44;96714.38;5094453;28;20028;-67
2021/11/20 03:53:59;;;;;;;3.53;3.22;;;;;;;5.96;66.98;96715.19;5094394;28;20020;-65
2021/11/20 03:56:25;;;;;;;3.85;2.88;;;;;;;6.07;67.53;96712.47;5094408;28;20551;-66
2021/11/20 03:58:51;;;;;;;7.47;3.50;;;;;;;6.17;68.24;96711.41;5094329;28;20370;-65
2021/11/20 04:01:19;;;;;;;5.88;3.45;;;;;;;6.06;66.79;96700.38;5094287;28;20020;-64
2021/11/20 04:03:46;;;;;;;3.25;2.95;;;;;;;6.18;69.27;96697.53;5094385;28;20028;-66
2021/11/20 04:06:15;;;;;;;4.35;3.30;;;;;;;6.37;69.05;96694.59;5093029;28;20485;-66
2021/11/20 04:08:48;;;;;;;4.07;2.92;;;;;;;6.60;68.65;96698.53;5094249;28;20028;-64
2021/11/20 04:11:16;;;;;;;4.57;2.90;;;;;;;6.83;68.04;96708.44;5094252;28;20024;-65
2021/11/20 04:13:43;;;;;;;3.92;2.90;;;;;;;7.01;67.59;96705.50;5094004;28;20021;-64
2021/11/20 04:16:16;;;;;;;3.30;2.83;;;;;;;7.16;66.96;96702.56;5093432;28;20107;-65
2021/11/20 04:18:42;;;;;;;4.45;3.42;;;;;;;7.28;66.30;96708.38;5094110;28;20028;-69
2021/11/20 04:21:09;;;;;;;3.58;3.00;;;;;;;7.40;66.07;96697.69;5093790;28;20413;-65
2021/11/20 04:23:35;;;;;;;3.53;2.95;;;;;;;7.55;66.10;96703.44;5093865;28;20027;-65
2021/11/20 04:26:03;;;;;;;5.60;3.10;;;;;;;7.66;65.19;96691.03;5093841;28;20016;-63
2021/11/20 04:28:28;;;;;;;4.50;3.28;;;;;;;7.75;65.26;96676.94;5093767;28;20526;-62
2021/11/20 04:30:54;;;;;;;3.20;2.45;;;;;;;7.77;65.37;96689.94;5093728;28;20050;-65
2021/11/20 04:33:20;;;;;;;5.25;3.67;;;;;;;7.85;65.49;96674.94;5093897;28;20024;-63
2021/11/20 04:35:46;;;;;;;4.55;3.42;;;;;;;8.01;64.61;96675.41;5093701;28;20363;-65
2021/11/20 04:38:12;;;;;;;3.92;3.05;;;;;;;8.06;64.76;96664.88;5093743;28;20381;-62
2021/11/20 04:40:38;;;;;;;7.22;3.30;;;;;;;8.09;64.48;96676.09;5093549;28;20040;-67
2021/11/20 04:43:04;;;;;;;5.30;3.80;;;;;;;8.24;64.07;96673.13;5093668;28;20020;-65
2021/11/20 04:45:32;;;;;;;4.03;3.20;;;;;;;8.30;63.89;96670.34;5093665;28;20031;-66
2021/11/20 04:47:58;;;;;;;3.83;2.72;;;;;;;8.37;63.79;96677.09;5093546;28;20016;-64
2021/11/20 04:50:24;;;;;;;4.03;2.65;;;;;;;8.42;63.31;96667.41;5093447;28;20032;-63
2021/11/20 04:52:50;;;;;;;4.55;2.50;;;;;;;8.48;63.12;96661.16;5093613;28;20016;-64
2021/11/20 04:55:17;;;;;;;3.80;2.78;;;;;;;8.49;63.29;96669.84;5093433;28;20020;-66
2021/11/20 04:57:43;;;;;;;3.85;2.95;;;;;;;8.49;62.99;96672.47;5093383;28;20020;-65
2021/11/20 05:00:17;;;;;;;3.72;2.90;;;;;;;8.49;63.29;96668.09;5093231;28;20031;-68
2021/11/20 05:02:43;;;;;;;3.53;3.13;;;;;;;8.56;63.00;96687.06;5093368;28;20027;-63
2021/11/20 05:05:09;;;;;;;3.00;2.70;;;;;;;8.60;63.08;96699.13;5093300;28;20047;-67
2021/11/20 05:07:35;;;;;;;5.55;3.40;;;;;;;8.59;63.10;96695.69;5093107;28;20040;-62
2021/11/20 05:10:01;;;;;;;5.60;3.22;;;;;;;8.66;63.08;96690.25;5093278;28;20436;-65
2021/11/20 05:12:27;;;;;;;4.05;2.80;;;;;;;8.67;62.91;96687.63;5093152;28;20050;-63
2021/11/20 05:14:53;;;;;;;3.67;2.70;;;;;;;8.67;63.34;96687.63;5093175;28;20060;-65
2021/11/20 05:17:18;;;;;;;4.25;3.05;;;;;;;8.68;63.26;96691.97;5093141;28;20020;-63
2021/11/20 05:19:44;;;;;;;17.80;9.25;;;;;;;8.72;63.22;96697.91;5092943;28;20036;-69
2021/11/20 05:22:09;;;;;;;5.70;3.20;;;;;;;8.79;62.82;96696.00;5093144;28;20485;-64
2021/11/20 05:24:35;;;;;;;5.80;3.72;;;;;;;8.81;62.80;96695.06;5093144;28;20024;-63
2021/11/20 05:27:02;;;;;;;5.80;3.17;;;;;;;8.84;63.01;96694.13;5095901;28;20024;-68
2021/11/20 05:31:54;;;;;;;3.95;3.05;;;;;;;8.88;62.71;96692.28;5097365;28;20046;-63
2021/11/20 05:34:20;;;;;;;3.60;3.10;;;;;;;8.90;62.85;96691.34;5097125;28;20543;-62
2021/11/20 05:36:46;;;;;;;4.78;4.10;;;;;;;8.88;63.18;96694.88;5096994;28;20028;-63
2021/11/20 05:39:12;;;;;;;3.78;2.72;;;;;;;8.95;62.48;96699.03;5097078;28;20533;-63
2021/11/20 05:41:38;;;;;;;3.47;2.67;;;;;;;8.99;61.99;96685.00;5097086;28;20024;-62
2021/11/20 05:44:04;;;;;;;4.13;3.20;;;;;;;9.08;62.10;96689.94;5096981;28;20367;-65
2021/11/20 05:46:30;;;;;;;3.63;3.05;;;;;;;9.13;61.88;96689.81;5096984;28;20099;-61
2021/11/20 05:48:55;;;;;;;3.40;2.75;;;;;;;9.15;61.86;96692.38;5096827;28;20054;-66
2021/11/20 05:51:22;;;;;;;4.28;3.40;;;;;;;9.16;61.86;96684.50;5096923;28;20422;-67
2021/11/20 05:53:48;;;;;;;4.38;3.03;;;;;;;9.15;61.96;96681.94;5096843;28;20084;-63
2021/11/20 05:56:14;;;;;;;4.05;3.05;;;;;;;9.15;61.58;96682.78;5096804;28;20016;-69
2021/11/20 05:58:40;;;;;;;3.25;2.65;;;;;;;9.23;61.82;96695.59;5096719;28;20108;-63
2021/11/20 06:01:09;;;;;;;3.78;2.63;;;;;;;9.27;61.49;96706.81;5096579;28;20028;-64
2021/11/20 06:03:36;;;;;;;4.67;3.70;;;;;;;9.26;61.87;96711.16;5096567;28;20020;-67
2021/11/20 06:06:02;;;;;;;5.32;4.38;;;;;;;9.33;61.97;96722.31;5096557;28;20485;-64
2021/11/20 06:08:28;;;;;;;5.28;4.72;;;;;;;9.28;61.98;96730.25;5096571;28;20436;-67
2021/11/20 06:10:56;;;;;;;4.75;4.25;;;;;;;9.29;61.75;96736.31;5096520;28;20024;-62
2021/11/20 06:13:23;;;;;;;3.90;3.50;;;;;;;9.26;61.41;96737.28;5096345;28;20024;-66
2021/11/20 06:15:50;;;;;;;4.35;3.38;;;;;;;9.23;61.39;96739.97;5096264;28;20026;-67
2021/11/20 06:18:16;;;;;;;3.65;3.15;;;;;;;9.22;61.45;96733.06;5096304;28;20047;-65
2021/11/20 06:20:43;;;;;;;3.58;3.00;;;;;;;9.21;61.34;96729.56;5096205;28;20490;-66
2021/11/20 06:23:10;;;;;;;3.53;2.90;;;;;;;9.21;61.34;96720.88;5096219;28;20036;-65
2021/11/20 06:25:36;;;;;;;4.05;3.30;;;;;;;9.19;61.58;96728.78;5096112;28;20028;-65
2021/11/20 06:28:02;;;;;;;4.13;3.65;;;;;;;9.21;61.62;96732.19;5096096;28;20077;-62
2021/11/20 06:30:29;;;;;;;7.05;3.60;;;;;;;9.18;61.71;96732.28;5096117;28;20024;-65
2021/11/20 06:32:55;;;;;;;6.07;3.72;;;;;;;9.20;61.65;96727.00;5096252;28;20032;-68
2021/11/20 06:35:25;;;;;;;4.43;3.75;;;;;;;9.25;62.08;96727.75;5096024;28;20103;-68
2021/11/20 06:37:50;;;;;;;3.85;3.25;;;;;;;9.31;62.21;96722.34;5095077;28;20028;-65
2021/11/20 06:40:21;;;;;;;5.38;3.08;;;;;;;9.40;61.92;96725.56;5095877;28;20104;-66
2021/11/20 06:42:47;;;;;;;3.03;2.58;;;;;;;9.45;61.92;96718.47;5095991;28;20363;-69
2021/11/20 06:45:18;;;;;;;3.30;2.80;;;;;;;9.45;62.44;96719.28;5095904;28;20032;-64
2021/11/20 06:47:44;;;;;;;6.43;3.03;;;;;;;9.53;61.36;96707.75;5094506;28;20120;-65
2021/11/20 06:50:10;;;;;;;4.07;2.70;;;;;;;9.60;61.29;96712.75;5095605;28;20397;-63
2021/11/20 06:52:36;;;;;;;4.80;3.35;;;;;;;9.69;60.93;96718.59;5095689;28;20020;-64
2021/11/20 06:55:04;;;;;;;6.20;3.20;;;;;;;9.79;60.87;96721.75;5095742;28;20023;-62
2021/11/20 07:00:30;;;;;;;6.40;3.97;;;;;;;9.90;60.39;96724.03;5095621;28;20382;-64
2021/11/20 07:02:58;;;;;;;5.57;3.70;;;;;;;9.93;59.62;96721.31;5095348;28;20477;-67
2021/11/20 07:05:25;;;;;;;5.07;4.10;;;;;;;9.97;59.61;96722.94;5095302;28;20486;-65
2021/11/20 07:07:53;;;;;;;9.75;7.22;;;;;;;9.99;59.34;96719.34;5095473;28;20024;-64
2021/11/20 07:10:22;;;;;;;19.85;14.43;;;;;;;9.96;59.68;96722.06;5095462;28;20024;-64
2021/11/20 07:12:51;;;;;;;10.57;8.60;;;;;;;9.99;59.83;96719.34;5095308;28;20400;-65
2021/11/20 07:15:18;;;;;;;6.75;6.05;;;;;;;10.09;59.68;96724.28;5095230;28;20031;-65
2021/11/20 07:17:44;;;;;;;6.13;3.88;;;;;;;10.23;59.68;96724.66;5095126;28;20474;-67
2021/11/20 07:20:11;;;;;;;4.68;3.70;;;;;;;10.38;59.13;96729.44;5094840;28;20044;-66
2021/11/20 07:22:37;;;;;;;4.78;2.25;;;;;;;10.53;58.36;96723.69;5095271;28;20548;-63
2021/11/20 07:25:04;;;;;;;4.75;2.88;;;;;;;10.65;58.19;96719.78;5095090;28;20028;-66
2021/11/20 07:27:30;;;;;;;4.00;2.83;;;;;;;10.80;58.27;96707.06;5094808;28;20043;-64
2021/11/20 07:29:56;;;;;;;3.15;2.60;;;;;;;10.94;57.90;96714.41;5094960;28;20574;-63
2021/11/20 07:32:26;;;;;;;2.65;2.35;;;;;;;11.08;56.94;96703.44;5094867;28;20020;-65
2021/11/20 07:34:52;;;;;;;2.75;2.42;;;;;;;11.03;57.28;96710.59;5094935;28;20038;-64
2021/11/20 07:37:18;;;;;;;2.80;2.50;;;;;;;11.08;57.34;96709.53;5094741;28;20375;-67
2021/11/20 07:39:44;;;;;;;3.72;2.78;;;;;;;11.24;56.99;96704.59;5094724;28;20020;-66
2021/11/20 07:42:10;;;;;;;6.10;2.63;;;;;;;12.23;54.38;96708.59;5094682;28;20039;-64
2021/11/20 07:44:35;;;;;;;4.50;2.28;;;;;;;13.08;51.42;96697.94;5094668;28;20501;-65
2021/11/20 07:47:01;;;;;;;2.53;2.33;;;;;;;13.83;50.56;96703.25;5094641;28;20059;-66
2021/11/20 07:49:27;;;;;;;2.50;2.28;;;;;;;15.52;45.68;96692.00;5093414;28;20111;-66
2021/11/20 07:51:53;;;;;;;2.63;2.30;;;;;;;17.53;42.48;96692.56;5094541;28;20028;-66
2021/11/20 07:54:19;;;;;;;3.17;2.63;;;;;;;18.67;38.48;96677.22;5094485;28;20069;-65
2021/11/20 07:56:45;;;;;;;3.88;2.53;;;;;;;19.69;37.90;96679.81;5094441;28;20024;-66
2021/11/20 07:59:14;;;;;;;2.88;1.92;;;;;;;19.07;37.97;96670.94;5094528;28;20095;-63
2021/11/20 08:01:40;;;;;;;3.10;2.40;;;;;;;18.09;39.40;96666.97;5094372;28;20382;-69
2021/11/20 08:04:06;;;;;;;2.78;2.30;;;;;;;17.10;41.34;96667.91;5094448;28;20028;-65
2021/11/20 08:06:33;;;;;;;3.75;2.63;;;;;;;16.54;42.92;96669.50;5094273;28;20028;-64
2021/11/20 08:09:05;;;;;;;2.92;2.35;;;;;;;15.48;44.32;96672.00;5094045;28;20111;-66
2021/11/20 08:11:32;;;;;;;3.08;2.53;;;;;;;14.71;46.75;96668.16;5094174;28;20070;-65
2021/11/20 08:13:58;;;;;;;3.30;2.58;;;;;;;14.23;47.91;96671.47;5093985;28;20026;-62
2021/11/20 08:16:26;;;;;;;3.92;2.35;;;;;;;14.06;48.62;96668.84;5094025;28;20016;-64
2021/11/20 08:18:51;;;;;;;2.30;2.10;;;;;;;13.80;48.97;96682.34;5093785;28;20024;-67
2021/11/20 08:21:17;;;;;;;3.30;2.20;;;;;;;13.63;49.83;96681.38;5092694;28;20081;-64
2021/11/20 08:23:42;;;;;;;3.72;2.55;;;;;;;13.68;49.57;96683.81;5093965;28;20028;-64
2021/11/20 08:26:09;;;;;;;3.28;2.53;;;;;;;13.77;50.19;96682.50;5093989;28;20020;-61
2021/11/20 08:28:36;;;;;;;2.70;2.00;;;;;;;13.74;49.87;96685.28;5093785;28;20110;-67
2021/11/20 08:31:03;;;;;;;2.60;2.25;;;;;;;13.68;49.95;96688.19;5093898;28;20024;-65
2021/11/20 08:33:30;;;;;;;2.50;2.00;;;;;;;13.45;50.80;96688.34;5093727;28;20389;-67
2021/11/20 08:35:57;;;;;;;2.67;2.20;;;;;;;13.17;51.65;96694.91;5093774;28;20397;-65
2021/11/20 08:38:24;;;;;;;3.42;2.00;;;;;;;13.10;51.30;96696.94;5093680;28;20355;-68
2021/11/20 08:40:52;;;;;;;2.15;1.95;;;;;;;13.04;51.24;96697.25;5093616;28;20024;-65
2021/11/20 08:43:28;;;;;;;3.40;1.80;;;;;;;12.92;51.98;96701.28;5093672;28;20028;-64
2021/11/20 08:45:55;;;;;;;9.70;2.30;;;;;;;12.71;52.65;96706.56;5093720;28;20448;-67
2021/11/20 08:48:21;;;;;;;3.25;2.47;;;;;;;12.86;52.84;96691.03;5093384;28;20028;-62
2021/11/20 08:50:51;;;;;;;4.28;2.55;;;;;;;12.84;53.97;96698.13;5093442;28;20039;-63
2021/11/20 08:53:18;;;;;;;4.43;3.00;;;;;;;12.91;54.29;96694.28;5093599;28;20024;-66
2021/11/20 08:55:44;;;;;;;3.85;2.60;;;;;;;13.09;53.42;96697.88;5093500;28;20497;-68
2021/11/20 08:58:11;;;;;;;3.97;2.90;;;;;;;13.19;53.49;96703.56;5093454;28;20157;-66
2021/11/20 09:00:40;;;;;;;5.88;3.00;;;;;;;13.30;53.22;96703.03;5092913;28;20013;-66
2021/11/20 09:03:23;;;;;;;5.18;3.50;;;;;;;13.44;52.41;96698.91;5093156;28;20026;-62
2021/11/20 09:06:18;;;;;;;3.70;2.72;;;;;;;13.43;51.82;96690.22;5093194;28;20024;-63
2021/11/20 09:09:10;;;;;;;5.57;3.00;;;;;;;13.52;51.58;96676.66;5089243;28;20040;-66
2021/11/20 09:11:36;;;;;;;4.15;2.80;;;;;;;13.61;51.63;96672.72;5093238;28;20390;-63
2021/11/20 09:14:16;;;;;;;4.88;2.70;;;;;;;13.61;51.27;96669.25;5093237;28;20039;-61
2021/11/20 09:16:42;;;;;;;4.43;3.50;;;;;;;13.45;51.42;96662.06;5093270;28;20036;-65
2021/11/20 09:19:09;;;;;;;4.20;3.15;;;;;;;13.31;51.79;96667.13;5092947;28;20032;-66
2021/11/20 09:21:35;;;;;;;5.18;3.60;;;;;;;13.18;51.89;96661.63;5093092;28;20024;-67
2021/11/20 09:24:02;;;;;;;4.38;3.30;;;;;;;13.22;52.41;96679.75;5091823;28;20024;-67
2021/11/20 09:26:30;;;;;;;5.25;2.65;;;;;;;13.26;52.00;96669.97;5092919;28;20107;-68
2021/11/20 09:28:58;;;;;;;4.95;3.20;;;;;;;13.26;52.67;96670.84;5093006;28;20020;-67
2021/11/20 09:31:25;;;;;;;2.90;2.30;;;;;;;13.32;52.19;96668.81;5093142;28;20094;-62
2021/11/20 09:33:51;;;;;;;4.93;3.17;;;;;;;13.38;53.12;96666.78;5092967;28;20378;-66
2021/11/20 09:36:20;;;;;;;3.65;2.75;;;;;;;13.59;52.41;96658.81;5092961;28;20035;-66
2021/11/20 09:38:47;;;;;;;2.60;2.00;;;;;;;13.84;52.05;96662.00;5092981;28;20028;-64
2021/11/20 09:41:20;;;;;;;3.38;2.60;;;;;;;14.10;50.35;96646.72;5093056;28;20456;-64
2021/11/20 09:43:50;;;;;;;4.88;2.70;;;;;;;14.27;50.72;96641.44;5092823;28;20500;-62
2021/11/20 09:46:18;;;;;;;3.03;2.42;;;;;;;14.51;50.24;96638.47;5092826;28;20020;-64
2021/11/20 09:48:48;;;;;;;5.50;2.05;;;;;;;14.70;48.69;96641.91;5092714;28;20165;-62
2021/11/20 09:51:35;;;;;;;3.47;2.72;;;;;;;14.76;48.46;96633.69;5092865;28;20110;-65
2021/11/20 09:54:08;;;;;;;5.80;3.17;;;;;;;14.84;48.95;96631.50;5093014;28;20056;-67
2021/11/20 09:56:43;;;;;;;3.28;2.17;;;;;;;14.96;48.48;96614.19;5092920;28;20073;-65
2021/11/20 09:59:50;;;;;;;5.63;2.60;;;;;;;15.03;48.38;96627.91;5092754;28;20093;-63
2021/11/20 10:02:19;;;;;;;5.55;2.60;;;;;;;14.96;49.09;96630.00;5050358;28;20132;-66
2021/11/20 10:05:00;;;;;;;3.80;2.38;;;;;;;15.05;48.04;96612.00;5086675;28;20065;-63
2021/11/20 10:07:38;;;;;;;3.70;2.75;;;;;;;15.19;48.03;96614.72;5092689;28;20036;-65
2021/11/20 10:10:24;;;;;;;3.92;3.17;;;;;;;15.32;48.41;96620.16;5092853;28;20020;-64
2021/11/20 10:13:03;;;;;;;5.07;3.22;;;;;;;15.28;47.52;96616.84;5093197;28;20040;-64
2021/11/20 10:15:32;;;;;;;4.25;3.05;;;;;;;15.39;47.66;96608.31;5096404;28;20465;-64
2021/11/20 10:18:17;;;;;;;5.78;2.22;;;;;;;15.48;47.56;96606.13;5096453;28;20012;-63
2021/11/20 10:20:51;;;;;;;3.58;2.47;;;;;;;15.56;47.03;96605.69;5096168;28;20048;-66
2021/11/20 10:23:29;;;;;;;2.60;2.28;;;;;;;15.49;46.58;96605.16;5096246;28;20036;-66
2021/11/20 10:25:54;;;;;;;5.47;2.90;;;;;;;15.39;46.71;96603.03;5096232;28;20028;-66
2021/11/20 10:28:50;;;;;;;5.05;3.35;;;;;;;15.44;47.65;96601.97;5096060;28;20024;-63
2021/11/20 10:31:25;;;;;;;4.35;3.10;;;;;;;15.43;47.65;96609.00;5096350;28;20055;-65
2021/11/20 10:34:26;;;;;;;2.50;2.30;;;;;;;15.50;46.96;96599.81;5096145;28;20026;-67
2021/11/20 10:36:57;;;;;;;2.80;2.33;;;;;;;15.50;46.98;96602.44;5093878;28;20028;-60
2021/11/20 10:39:52;;;;;;;2.35;2.03;;;;;;;15.61;46.29;96590.44;5096058;28;20028;-66
2021/11/20 10:42:40;;;;;;;5.80;2.65;;;;;;;15.68;46.79;96588.31;5095886;28;20024;-68
2021/11/20 10:45:14;;;;;;;3.45;2.20;;;;;;;15.66;46.36;96597.13;5095839;28;20024;-63
2021/11/20 10:47:54;;;;;;;4.60;2.22;;;;;;;15.75;46.07;96598.38;5095746;28;20029;-66
2021/11/20 10:50:35;;;;;;;2.50;2.23;;;;;;;15.83;45.85;96594.47;5095896;28;20024;-62
2021/11/20 10:53:28;;;;;;;3.72;2.10;;;;;;;15.86;45.63;96595.13;5095640;28;20265;-62
2021/11/20 10:56:19;;;;;;;2.20;2.00;;;;;;;15.74;45.92;96587.97;5095671;28;20024;-65
2021/11/20 10:59:06;;;;;;;4.78;2.17;;;;;;;15.66;45.88;96585.75;5095668;28;20028;-63
2021/11/20 11:02:00;;;;;;;2.58;2.15;;;;;;;15.73;45.83;96584.47;5095440;28;20032;-64
2021/11/20 11:04:53;;;;;;;3.97;2.42;;;;;;;15.69;45.77;96584.72;5095468;28;20115;-60
2021/11/20 11:07:27;;;;;;;3.97;1.98;;;;;;;15.78;46.33;96595.56;5095293;28;20035;-66
2021/11/20 11:09:57;;;;;;;2.88;2.00;;;;;;;15.96;45.02;96598.13;5095486;28;20032;-61
2021/11/20 11:12:53;;;;;;;6.95;2.38;;;;;;;15.94;45.53;96594.69;5095404;28;20028;-66
2021/11/20 11:15:57;;;;;;;2.90;2.38;;;;;;;15.80;44.94;96595.50;5095288;28;20032;-62
2021/11/20 11:18:55;;;;;;;2.42;1.90;;;;;;;15.79;45.23;96588.53;5095270;28;20136;-66
2021/11/20 11:21:41;;;;;;;2.35;2.03;;;;;;;15.91;45.57;96589.59;5095254;28;20032;-61
2021/11/20 11:24:16;;;;;;;4.10;2.00;;;;;;;16.06;44.64;96587.88;5094908;28;20043;-61
2021/11/20 11:26:56;;;;;;;2.33;2.13;;;;;;;16.25;44.24;96584.09;5093815;28;20036;-66
2021/11/20 11:29:39;;;;;;;4.20;2.35;;;;;;;16.34;43.16;96582.72;5094882;28;20027;-68
2021/11/20 11:32:06;;;;;;;7.03;2.47;;;;;;;16.38;43.85;96589.50;5095000;28;20030;-69
2021/11/20 11:34:39;;;;;;;2.63;2.00;;;;;;;16.41;42.76;96587.53;5094925;28;20064;-63
2021/11/20 11:37:15;;;;;;;2.95;2.15;;;;;;;16.41;43.69;96590.16;5094823;28;20051;-61
2021/11/20 11:39:58;;;;;;;4.53;2.47;;;;;;;16.42;44.44;96583.97;5094696;28;20385;-65
2021/11/20 11:42:59;;;;;;;2.53;1.95;;;;;;;16.39;43.66;96585.94;5094884;28;20024;-64
2021/11/20 11:45:49;;;;;;;2.95;2.03;;;;;;;16.41;43.62;96581.41;5094049;28;20035;-63
2021/11/20 11:48:35;;;;;;;7.43;4.18;;;;;;;16.25;44.08;96584.97;5094662;28;20028;-68
2021/11/20 11:51:13;;;;;;;3.60;3.03;;;;;;;16.19;43.63;96571.31;5094628;28;20458;-62
2021/11/20 11:54:04;;;;;;;2.20;2.00;;;;;;;16.02;43.93;96581.91;5094590;28;20016;-64
2021/11/20 11:56:31;;;;;;;4.63;2.50;;;;;;;15.85;44.39;96580.25;5094670;28;20028;-63
2021/11/20 11:59:03;;;;;;;2.75;2.03;;;;;;;15.82;44.49;96577.78;5094543;28;20040;-63
2021/11/20 12:01:50;;;;;;;4.30;2.38;;;;;;;15.76;44.92;96586.06;5094373;28;20040;-66
2021/11/20 12:04:28;;;;;;;3.05;2.22;;;;;;;15.76;44.69;96578.16;5094289;28;20409;-62
2021/11/20 12:07:31;;;;;;;3.05;2.20;;;;;;;15.84;44.65;96581.22;5094328;28;20020;-67
2021/11/20 12:10:34;;;;;;;4.97;3.38;;;;;;;15.82;44.44;96580.44;5094340;28;20115;-67